Погода Инжавинона 2 недели

Тамбовская область, Россия

14 - 27 июля
  • 14июля
    Сегодня
    +18°
    +31°
    Небольшая облачность
    ВремяПогодаТемператураВлажностьДавлениеВетер, м/сВероятность осадков
    00:00Облачно с прояснениями+17°C61 %751 мм2.0 м/с2 %
    03:00Облачно с прояснениями+15°C64 %751 мм1.0 м/с2 %
    06:00Практически безоблачно+17°C65 %751 мм0.9 м/с2 %
    09:00Облачно с прояснениями+24°C45 %751 мм0.2 м/с2 %
    12:00Небольшая облачность+29°C38 %750 мм0.5 м/с2 %
    15:00Небольшая облачность+30°C38 %750 мм0.8 м/с2 %
    18:00Практически безоблачно+30°C41 %749 мм1.4 м/с2 %
    21:00Практически безоблачно+24°C53 %749 мм2.2 м/с1 %
  • 15июля
    Понедельник
    +18°
    +32°
    Ясно и безоблачно
    ВремяПогодаТемператураВлажностьДавлениеВетер, м/сВероятность осадков
    00:00Ясно и безоблачно+20°C69 %749 мм2.5 м/с2 %
    03:00Ясно и безоблачно+19°C74 %749 мм2.3 м/с2 %
    06:00Облачно с прояснениями+22°C68 %750 мм0.8 м/с15 %
    09:00Практически безоблачно+26°C54 %750 мм1.2 м/с9 %
    12:00Облачно с прояснениями+29°C50 %749 мм1.3 м/с21 %
    15:00Ясно и безоблачно+31°C52 %749 мм1.6 м/с23 %
    18:00Небольшая облачность+30°C54 %749 мм2.0 м/с27 %
    21:00Ясно и безоблачно+24°C76 %749 мм2.0 м/с5 %
  • 16июля
    Вторник
    +18°
    +33°
    Практически безоблачно
    ВремяПогодаТемператураВлажностьДавлениеВетер, м/сВероятность осадков
    00:00Ясно и безоблачно+21°C87 %750 мм2.1 м/с1 %
    03:00Ясно и безоблачно+19°C93 %749 мм1.8 м/с2 %
    06:00Ясно и безоблачно+21°C80 %750 мм2.2 м/с2 %
    09:00Ясно и безоблачно+27°C53 %750 мм2.0 м/с2 %
    12:00Ясно и безоблачно+31°C41 %750 мм2.3 м/с6 %
    15:00Практически безоблачно+32°C39 %750 мм2.6 м/с3 %
    18:00Небольшая облачность и лёгкий дождик+31°C43 %749 мм1.9 м/с17 %
    21:00Облачно с прояснениями+25°C59 %750 мм1.8 м/с10 %
  • 17июля
    Среда
    +20°
    +33°
    Небольшая облачность
    ВремяПогодаТемператураВлажностьДавлениеВетер, м/сВероятность осадков
    00:00Ясно и безоблачно+21°C74 %750 мм1.5 м/с2 %
    03:00Ясно и безоблачно+19°C83 %750 мм1.4 м/с2 %
    06:00Ясно и безоблачно+22°C77 %751 мм1.0 м/с2 %
    09:00Ясно и безоблачно+28°C51 %751 мм0.7 м/с2 %
    12:00Практически безоблачно+31°C40 %751 мм1.0 м/с12 %
    15:00Небольшая облачность+33°C39 %750 мм2.3 м/с18 %
    18:00Практически безоблачно+31°C44 %750 мм3.1 м/с10 %
    21:00Ясно и безоблачно+26°C64 %750 мм3.1 м/с2 %
  • 18июля
    Четверг
    +18°
    +32°
    Ясно и безоблачно
    ВремяПогодаТемператураВлажностьДавлениеВетер, м/сВероятность осадков
    00:00Ясно и безоблачно+23°C76 %750 мм3.1 м/с2 %
    03:00Облачно с прояснениями+21°C83 %750 мм2.8 м/с2 %
    06:00Облачно с прояснениями+21°C80 %750 мм2.9 м/с2 %
    09:00Ясно и безоблачно+28°C48 %750 мм2.9 м/с2 %
    12:00Ясно и безоблачно+31°C36 %750 мм3.8 м/с6 %
    15:00Ясно и безоблачно+32°C32 %750 мм4.1 м/с6 %
    18:00Ясно и безоблачно+30°C37 %749 мм4.1 м/с8 %
    21:00Ясно и безоблачно+24°C50 %749 мм2.6 м/с4 %
Мы используем cookies
Соглашаюсь